sensor_id;sensor_type;location;lat;lon;timestamp;pressure;altitude;pressure_sealevel;temperature
22828;BMP180;11580;52.562;13.418;2023-03-01T00:01:10;102119.00;;;3.40
22828;BMP180;11580;52.562;13.418;2023-03-01T00:03:37;102117.00;;;3.40
22828;BMP180;11580;52.562;13.418;2023-03-01T00:06:06;102098.00;;;3.40
22828;BMP180;11580;52.562;13.418;2023-03-01T00:08:34;102108.00;;;3.40
22828;BMP180;11580;52.562;13.418;2023-03-01T00:11:07;102098.00;;;3.50
22828;BMP180;11580;52.562;13.418;2023-03-01T00:13:35;102098.00;;;3.50
22828;BMP180;11580;52.562;13.418;2023-03-01T00:16:04;102106.00;;;3.50
22828;BMP180;11580;52.562;13.418;2023-03-01T00:18:31;102100.00;;;3.50
22828;BMP180;11580;52.562;13.418;2023-03-01T00:20:59;102091.00;;;3.60
22828;BMP180;11580;52.562;13.418;2023-03-01T00:23:26;102088.00;;;3.60
22828;BMP180;11580;52.562;13.418;2023-03-01T00:25:54;102077.00;;;3.60
22828;BMP180;11580;52.562;13.418;2023-03-01T00:28:23;102085.00;;;3.60
22828;BMP180;11580;52.562;13.418;2023-03-01T00:30:50;102087.00;;;3.70
22828;BMP180;11580;52.562;13.418;2023-03-01T00:33:18;102079.00;;;3.70
22828;BMP180;11580;52.562;13.418;2023-03-01T00:35:45;102087.00;;;3.70
22828;BMP180;11580;52.562;13.418;2023-03-01T00:38:12;102089.00;;;3.70
22828;BMP180;11580;52.562;13.418;2023-03-01T00:40:39;102091.00;;;3.70
22828;BMP180;11580;52.562;13.418;2023-03-01T00:43:06;102088.00;;;3.70
22828;BMP180;11580;52.562;13.418;2023-03-01T00:45:35;102083.00;;;3.70
22828;BMP180;11580;52.562;13.418;2023-03-01T00:48:03;102088.00;;;3.70
22828;BMP180;11580;52.562;13.418;2023-03-01T00:50:30;102085.00;;;3.70
22828;BMP180;11580;52.562;13.418;2023-03-01T00:52:58;102094.00;;;3.70
22828;BMP180;11580;52.562;13.418;2023-03-01T00:55:26;102087.00;;;3.70
22828;BMP180;11580;52.562;13.418;2023-03-01T00:57:53;102091.00;;;3.70
22828;BMP180;11580;52.562;13.418;2023-03-01T01:00:20;102071.00;;;3.70
22828;BMP180;11580;52.562;13.418;2023-03-01T01:02:49;102077.00;;;3.70
22828;BMP180;11580;52.562;13.418;2023-03-01T01:05:17;102067.00;;;3.60
22828;BMP180;11580;52.562;13.418;2023-03-01T01:07:47;102068.00;;;3.60
22828;BMP180;11580;52.562;13.418;2023-03-01T01:10:15;102062.00;;;3.60
22828;BMP180;11580;52.562;13.418;2023-03-01T01:12:44;102077.00;;;3.60
22828;BMP180;11580;52.562;13.418;2023-03-01T01:15:13;102066.00;;;3.50
22828;BMP180;11580;52.562;13.418;2023-03-01T01:17:42;102063.00;;;3.50
22828;BMP180;11580;52.562;13.418;2023-03-01T01:20:12;102051.00;;;3.50
22828;BMP180;11580;52.562;13.418;2023-03-01T01:22:39;102049.00;;;3.40
22828;BMP180;11580;52.562;13.418;2023-03-01T01:25:07;102044.00;;;3.40
22828;BMP180;11580;52.562;13.418;2023-03-01T01:27:35;102044.00;;;3.40
22828;BMP180;11580;52.562;13.418;2023-03-01T01:30:03;102040.00;;;3.30
22828;BMP180;11580;52.562;13.418;2023-03-01T01:32:30;102030.00;;;3.30
22828;BMP180;11580;52.562;13.418;2023-03-01T01:34:57;102042.00;;;3.30
22828;BMP180;11580;52.562;13.418;2023-03-01T01:37:26;102031.00;;;3.30
22828;BMP180;11580;52.562;13.418;2023-03-01T01:39:57;102029.00;;;3.20
22828;BMP180;11580;52.562;13.418;2023-03-01T01:42:26;102030.00;;;3.20
22828;BMP180;11580;52.562;13.418;2023-03-01T01:45:28;102023.00;;;3.20
22828;BMP180;11580;52.562;13.418;2023-03-01T01:48:02;102011.00;;;3.10
22828;BMP180;11580;52.562;13.418;2023-03-01T01:50:30;102023.00;;;3.10
22828;BMP180;11580;52.562;13.418;2023-03-01T01:53:09;102015.00;;;3.10
22828;BMP180;11580;52.562;13.418;2023-03-01T01:55:43;102014.00;;;3.10
22828;BMP180;11580;52.562;13.418;2023-03-01T01:58:16;102018.00;;;3.10
22828;BMP180;11580;52.562;13.418;2023-03-01T02:00:44;102015.00;;;3.00
22828;BMP180;11580;52.562;13.418;2023-03-01T02:03:17;102012.00;;;3.00
22828;BMP180;11580;52.562;13.418;2023-03-01T02:05:51;102019.00;;;3.00
22828;BMP180;11580;52.562;13.418;2023-03-01T02:08:26;102030.00;;;3.00
22828;BMP180;11580;52.562;13.418;2023-03-01T02:10:56;102028.00;;;3.00
22828;BMP180;11580;52.562;13.418;2023-03-01T02:13:23;102034.00;;;3.00
22828;BMP180;11580;52.562;13.418;2023-03-01T02:15:51;102032.00;;;2.90
22828;BMP180;11580;52.562;13.418;2023-03-01T02:18:23;102020.00;;;2.90
22828;BMP180;11580;52.562;13.418;2023-03-01T02:21:05;102024.00;;;2.90
22828;BMP180;11580;52.562;13.418;2023-03-01T02:23:36;102033.00;;;2.80
22828;BMP180;11580;52.562;13.418;2023-03-01T02:26:10;102042.00;;;2.80
22828;BMP180;11580;52.562;13.418;2023-03-01T02:28:44;102039.00;;;2.80
22828;BMP180;11580;52.562;13.418;2023-03-01T02:31:16;102037.00;;;2.80
22828;BMP180;11580;52.562;13.418;2023-03-01T02:34:03;102029.00;;;2.70
22828;BMP180;11580;52.562;13.418;2023-03-01T02:36:36;102037.00;;;2.70
22828;BMP180;11580;52.562;13.418;2023-03-01T02:39:07;102032.00;;;2.70
22828;BMP180;11580;52.562;13.418;2023-03-01T02:41:46;102029.00;;;2.70
22828;BMP180;11580;52.562;13.418;2023-03-01T02:44:16;102021.00;;;2.70
22828;BMP180;11580;52.562;13.418;2023-03-01T02:46:46;102025.00;;;2.70
22828;BMP180;11580;52.562;13.418;2023-03-01T02:49:22;102026.00;;;2.70
22828;BMP180;11580;52.562;13.418;2023-03-01T02:52:21;102015.00;;;2.70
22828;BMP180;11580;52.562;13.418;2023-03-01T02:54:57;102006.00;;;2.70
22828;BMP180;11580;52.562;13.418;2023-03-01T02:57:28;101983.00;;;2.70
22828;BMP180;11580;52.562;13.418;2023-03-01T03:00:04;102002.00;;;2.70
22828;BMP180;11580;52.562;13.418;2023-03-01T03:02:34;101998.00;;;2.70
22828;BMP180;11580;52.562;13.418;2023-03-01T03:05:13;101995.00;;;2.70
22828;BMP180;11580;52.562;13.418;2023-03-01T03:07:44;102005.00;;;2.70
22828;BMP180;11580;52.562;13.418;2023-03-01T03:10:15;101990.00;;;2.70
22828;BMP180;11580;52.562;13.418;2023-03-01T03:12:43;101999.00;;;2.70
22828;BMP180;11580;52.562;13.418;2023-03-01T03:15:11;101999.00;;;2.70
22828;BMP180;11580;52.562;13.418;2023-03-01T03:17:41;102005.00;;;2.70
22828;BMP180;11580;52.562;13.418;2023-03-01T03:20:11;102005.00;;;2.70
22828;BMP180;11580;52.562;13.418;2023-03-01T03:22:45;102001.00;;;2.70
22828;BMP180;11580;52.562;13.418;2023-03-01T03:25:13;101995.00;;;2.70
22828;BMP180;11580;52.562;13.418;2023-03-01T03:27:42;101934.00;;;2.70
22828;BMP180;11580;52.562;13.418;2023-03-01T03:30:15;101993.00;;;2.80
22828;BMP180;11580;52.562;13.418;2023-03-01T03:32:45;101992.00;;;2.70
22828;BMP180;11580;52.562;13.418;2023-03-01T03:35:20;101993.00;;;2.70
22828;BMP180;11580;52.562;13.418;2023-03-01T03:37:48;101980.00;;;2.70
22828;BMP180;11580;52.562;13.418;2023-03-01T03:40:34;101964.00;;;2.70
22828;BMP180;11580;52.562;13.418;2023-03-01T03:43:01;101980.00;;;2.70
22828;BMP180;11580;52.562;13.418;2023-03-01T03:45:30;101977.00;;;2.70
22828;BMP180;11580;52.562;13.418;2023-03-01T03:47:59;101971.00;;;2.70
22828;BMP180;11580;52.562;13.418;2023-03-01T03:50:26;101970.00;;;2.70
22828;BMP180;11580;52.562;13.418;2023-03-01T03:52:54;101968.00;;;2.70
22828;BMP180;11580;52.562;13.418;2023-03-01T03:55:21;101955.00;;;2.70
22828;BMP180;11580;52.562;13.418;2023-03-01T03:57:49;101960.00;;;2.70
22828;BMP180;11580;52.562;13.418;2023-03-01T04:00:19;101964.00;;;2.70
22828;BMP180;11580;52.562;13.418;2023-03-01T04:02:48;101957.00;;;2.70
22828;BMP180;11580;52.562;13.418;2023-03-01T04:05:18;101963.00;;;2.70
22828;BMP180;11580;52.562;13.418;2023-03-01T04:07:46;101957.00;;;2.70
22828;BMP180;11580;52.562;13.418;2023-03-01T04:10:17;101940.00;;;2.60
22828;BMP180;11580;52.562;13.418;2023-03-01T04:12:44;101972.00;;;2.60
22828;BMP180;11580;52.562;13.418;2023-03-01T04:15:12;101971.00;;;2.60
22828;BMP180;11580;52.562;13.418;2023-03-01T04:17:44;101959.00;;;2.60
22828;BMP180;11580;52.562;13.418;2023-03-01T04:20:16;101964.00;;;2.60
22828;BMP180;11580;52.562;13.418;2023-03-01T04:22:51;101967.00;;;2.60
22828;BMP180;11580;52.562;13.418;2023-03-01T04:25:19;101968.00;;;2.60
22828;BMP180;11580;52.562;13.418;2023-03-01T04:27:46;101966.00;;;2.60
22828;BMP180;11580;52.562;13.418;2023-03-01T04:30:14;101956.00;;;2.60
22828;BMP180;11580;52.562;13.418;2023-03-01T04:32:41;101931.00;;;2.60
22828;BMP180;11580;52.562;13.418;2023-03-01T04:35:09;101963.00;;;2.60
22828;BMP180;11580;52.562;13.418;2023-03-01T04:37:38;101950.00;;;2.50
22828;BMP180;11580;52.562;13.418;2023-03-01T04:40:07;101957.00;;;2.50
22828;BMP180;11580;52.562;13.418;2023-03-01T04:42:42;101950.00;;;2.50
22828;BMP180;11580;52.562;13.418;2023-03-01T04:45:10;101959.00;;;2.50
22828;BMP180;11580;52.562;13.418;2023-03-01T04:47:40;101955.00;;;2.50
22828;BMP180;11580;52.562;13.418;2023-03-01T04:50:10;101962.00;;;2.50
22828;BMP180;11580;52.562;13.418;2023-03-01T04:52:39;101961.00;;;2.50
22828;BMP180;11580;52.562;13.418;2023-03-01T04:55:08;101961.00;;;2.50
22828;BMP180;11580;52.562;13.418;2023-03-01T04:57:36;101963.00;;;2.50
22828;BMP180;11580;52.562;13.418;2023-03-01T05:00:04;101933.00;;;2.40
22828;BMP180;11580;52.562;13.418;2023-03-01T05:02:51;101955.00;;;2.40
22828;BMP180;11580;52.562;13.418;2023-03-01T05:05:27;101961.00;;;2.40
22828;BMP180;11580;52.562;13.418;2023-03-01T05:07:58;101955.00;;;2.40
22828;BMP180;11580;52.562;13.418;2023-03-01T05:10:29;101958.00;;;2.30
22828;BMP180;11580;52.562;13.418;2023-03-01T05:12:57;101951.00;;;2.30
22828;BMP180;11580;52.562;13.418;2023-03-01T05:15:24;101954.00;;;2.30
22828;BMP180;11580;52.562;13.418;2023-03-01T05:17:53;101943.00;;;2.30
22828;BMP180;11580;52.562;13.418;2023-03-01T05:20:21;101950.00;;;2.20
22828;BMP180;11580;52.562;13.418;2023-03-01T05:22:49;101925.00;;;2.20
22828;BMP180;11580;52.562;13.418;2023-03-01T05:25:18;101947.00;;;2.20
22828;BMP180;11580;52.562;13.418;2023-03-01T05:27:47;101936.00;;;2.20
22828;BMP180;11580;52.562;13.418;2023-03-01T05:30:16;101939.00;;;2.20
22828;BMP180;11580;52.562;13.418;2023-03-01T05:32:46;101940.00;;;2.10
22828;BMP180;11580;52.562;13.418;2023-03-01T05:35:16;101940.00;;;2.10
22828;BMP180;11580;52.562;13.418;2023-03-01T05:37:46;101935.00;;;2.10
22828;BMP180;11580;52.562;13.418;2023-03-01T05:40:16;101940.00;;;2.10
22828;BMP180;11580;52.562;13.418;2023-03-01T05:42:47;101937.00;;;2.10
22828;BMP180;11580;52.562;13.418;2023-03-01T05:45:15;101939.00;;;2.10
22828;BMP180;11580;52.562;13.418;2023-03-01T05:47:45;101923.00;;;2.10
22828;BMP180;11580;52.562;13.418;2023-03-01T05:50:14;101924.00;;;2.10
22828;BMP180;11580;52.562;13.418;2023-03-01T05:52:46;101935.00;;;2.10
22828;BMP180;11580;52.562;13.418;2023-03-01T05:55:16;101937.00;;;2.10
22828;BMP180;11580;52.562;13.418;2023-03-01T05:57:45;101941.00;;;2.00
22828;BMP180;11580;52.562;13.418;2023-03-01T06:00:15;101936.00;;;2.10
22828;BMP180;11580;52.562;13.418;2023-03-01T06:02:42;101943.00;;;2.10
22828;BMP180;11580;52.562;13.418;2023-03-01T06:05:12;101940.00;;;2.20
22828;BMP180;11580;52.562;13.418;2023-03-01T06:07:40;101951.00;;;2.20
22828;BMP180;11580;52.562;13.418;2023-03-01T06:10:10;101944.00;;;2.20
22828;BMP180;11580;52.562;13.418;2023-03-01T06:12:40;101944.00;;;2.30
22828;BMP180;11580;52.562;13.418;2023-03-01T06:15:11;101948.00;;;2.30
22828;BMP180;11580;52.562;13.418;2023-03-01T06:17:41;101936.00;;;2.40
22828;BMP180;11580;52.562;13.418;2023-03-01T06:20:12;101937.00;;;2.40
22828;BMP180;11580;52.562;13.418;2023-03-01T06:22:41;101942.00;;;2.40
22828;BMP180;11580;52.562;13.418;2023-03-01T06:25:09;101932.00;;;2.50
22828;BMP180;11580;52.562;13.418;2023-03-01T06:27:36;101946.00;;;2.50
22828;BMP180;11580;52.562;13.418;2023-03-01T06:30:05;101940.00;;;2.60
22828;BMP180;11580;52.562;13.418;2023-03-01T06:32:35;101948.00;;;2.60
22828;BMP180;11580;52.562;13.418;2023-03-01T06:35:03;101949.00;;;2.60
22828;BMP180;11580;52.562;13.418;2023-03-01T06:37:31;101949.00;;;2.70
22828;BMP180;11580;52.562;13.418;2023-03-01T06:39:58;101957.00;;;2.70
22828;BMP180;11580;52.562;13.418;2023-03-01T06:42:25;101960.00;;;2.80
22828;BMP180;11580;52.562;13.418;2023-03-01T06:44:52;101955.00;;;2.80
22828;BMP180;11580;52.562;13.418;2023-03-01T06:47:19;101960.00;;;2.90
22828;BMP180;11580;52.562;13.418;2023-03-01T06:49:48;101961.00;;;3.00
22828;BMP180;11580;52.562;13.418;2023-03-01T06:52:15;101967.00;;;3.00
22828;BMP180;11580;52.562;13.418;2023-03-01T06:54:42;101957.00;;;3.10
22828;BMP180;11580;52.562;13.418;2023-03-01T06:57:09;101964.00;;;3.20
22828;BMP180;11580;52.562;13.418;2023-03-01T06:59:36;101972.00;;;3.20
22828;BMP180;11580;52.562;13.418;2023-03-01T07:02:03;101962.00;;;3.30
22828;BMP180;11580;52.562;13.418;2023-03-01T07:04:31;101969.00;;;3.40
22828;BMP180;11580;52.562;13.418;2023-03-01T07:06:59;101977.00;;;3.40
22828;BMP180;11580;52.562;13.418;2023-03-01T07:09:26;101981.00;;;3.50
22828;BMP180;11580;52.562;13.418;2023-03-01T07:11:53;101974.00;;;3.60
22828;BMP180;11580;52.562;13.418;2023-03-01T07:14:21;101975.00;;;3.70
22828;BMP180;11580;52.562;13.418;2023-03-01T07:16:50;101974.00;;;3.70
22828;BMP180;11580;52.562;13.418;2023-03-01T07:19:18;101980.00;;;3.80
22828;BMP180;11580;52.562;13.418;2023-03-01T07:21:45;101977.00;;;3.90
22828;BMP180;11580;52.562;13.418;2023-03-01T07:24:14;101978.00;;;4.00
22828;BMP180;11580;52.562;13.418;2023-03-01T07:26:42;101975.00;;;4.10
22828;BMP180;11580;52.562;13.418;2023-03-01T07:29:10;101979.00;;;4.20
22828;BMP180;11580;52.562;13.418;2023-03-01T07:31:38;101982.00;;;4.20
22828;BMP180;11580;52.562;13.418;2023-03-01T07:34:05;101971.00;;;4.30
22828;BMP180;11580;52.562;13.418;2023-03-01T07:36:32;101989.00;;;4.40
22828;BMP180;11580;52.562;13.418;2023-03-01T07:38:59;101979.00;;;4.50
22828;BMP180;11580;52.562;13.418;2023-03-01T07:41:29;101977.00;;;4.60
22828;BMP180;11580;52.562;13.418;2023-03-01T07:43:57;101972.00;;;4.70
22828;BMP180;11580;52.562;13.418;2023-03-01T07:46:24;101979.00;;;4.80
22828;BMP180;11580;52.562;13.418;2023-03-01T07:48:51;101971.00;;;4.90
22828;BMP180;11580;52.562;13.418;2023-03-01T07:51:18;101980.00;;;5.00
22828;BMP180;11580;52.562;13.418;2023-03-01T07:53:46;101980.00;;;5.10
22828;BMP180;11580;52.562;13.418;2023-03-01T07:56:15;101980.00;;;5.20
22828;BMP180;11580;52.562;13.418;2023-03-01T07:58:45;101996.00;;;5.40
22828;BMP180;11580;52.562;13.418;2023-03-01T08:01:15;101984.00;;;5.50
22828;BMP180;11580;52.562;13.418;2023-03-01T08:03:43;101988.00;;;5.60
22828;BMP180;11580;52.562;13.418;2023-03-01T08:06:12;101978.00;;;5.70
22828;BMP180;11580;52.562;13.418;2023-03-01T08:08:40;101985.00;;;5.80
22828;BMP180;11580;52.562;13.418;2023-03-01T08:11:11;101988.00;;;5.90
22828;BMP180;11580;52.562;13.418;2023-03-01T08:13:38;101993.00;;;6.00
22828;BMP180;11580;52.562;13.418;2023-03-01T08:16:12;101989.00;;;6.10
22828;BMP180;11580;52.562;13.418;2023-03-01T08:18:39;101981.00;;;6.30
22828;BMP180;11580;52.562;13.418;2023-03-01T08:21:08;101979.00;;;6.40
22828;BMP180;11580;52.562;13.418;2023-03-01T08:23:36;101983.00;;;6.50
22828;BMP180;11580;52.562;13.418;2023-03-01T08:26:06;101988.00;;;6.60
22828;BMP180;11580;52.562;13.418;2023-03-01T08:28:34;101983.00;;;6.70
22828;BMP180;11580;52.562;13.418;2023-03-01T08:31:02;101979.00;;;6.80
22828;BMP180;11580;52.562;13.418;2023-03-01T08:33:30;101983.00;;;7.00
22828;BMP180;11580;52.562;13.418;2023-03-01T08:36:05;101971.00;;;7.10
22828;BMP180;11580;52.562;13.418;2023-03-01T08:38:33;101977.00;;;7.10
22828;BMP180;11580;52.562;13.418;2023-03-01T08:41:01;101977.00;;;7.30
22828;BMP180;11580;52.562;13.418;2023-03-01T08:43:28;101976.00;;;7.40
22828;BMP180;11580;52.562;13.418;2023-03-01T08:45:55;101976.00;;;7.50
22828;BMP180;11580;52.562;13.418;2023-03-01T08:48:23;101983.00;;;7.60
22828;BMP180;11580;52.562;13.418;2023-03-01T08:50:51;101983.00;;;7.70
22828;BMP180;11580;52.562;13.418;2023-03-01T08:53:18;101972.00;;;7.70
22828;BMP180;11580;52.562;13.418;2023-03-01T08:55:46;101979.00;;;7.80
22828;BMP180;11580;52.562;13.418;2023-03-01T08:58:13;101979.00;;;7.90
22828;BMP180;11580;52.562;13.418;2023-03-01T09:00:40;101978.00;;;8.00
22828;BMP180;11580;52.562;13.418;2023-03-01T09:03:07;101961.00;;;8.10
22828;BMP180;11580;52.562;13.418;2023-03-01T09:05:34;101965.00;;;8.10
22828;BMP180;11580;52.562;13.418;2023-03-01T09:08:04;101962.00;;;8.20
22828;BMP180;11580;52.562;13.418;2023-03-01T09:10:31;101973.00;;;8.20
22828;BMP180;11580;52.562;13.418;2023-03-01T09:12:58;101979.00;;;8.30
22828;BMP180;11580;52.562;13.418;2023-03-01T09:15:26;101974.00;;;8.30
22828;BMP180;11580;52.562;13.418;2023-03-01T09:17:53;101976.00;;;8.40
22828;BMP180;11580;52.562;13.418;2023-03-01T09:20:20;101968.00;;;8.40
22828;BMP180;11580;52.562;13.418;2023-03-01T09:22:47;101965.00;;;8.50
22828;BMP180;11580;52.562;13.418;2023-03-01T09:25:16;101973.00;;;8.50
22828;BMP180;11580;52.562;13.418;2023-03-01T09:27:43;101969.00;;;8.60
22828;BMP180;11580;52.562;13.418;2023-03-01T09:30:11;101972.00;;;8.60
22828;BMP180;11580;52.562;13.418;2023-03-01T09:32:39;101975.00;;;8.70
22828;BMP180;11580;52.562;13.418;2023-03-01T09:35:08;101971.00;;;8.70
22828;BMP180;11580;52.562;13.418;2023-03-01T09:37:37;101966.00;;;8.70
22828;BMP180;11580;52.562;13.418;2023-03-01T09:40:11;101964.00;;;8.70
22828;BMP180;11580;52.562;13.418;2023-03-01T09:42:53;101977.00;;;8.80
22828;BMP180;11580;52.562;13.418;2023-03-01T09:45:32;101972.00;;;8.90
22828;BMP180;11580;52.562;13.418;2023-03-01T09:48:01;101971.00;;;8.90
22828;BMP180;11580;52.562;13.418;2023-03-01T09:50:35;101973.00;;;9.00
22828;BMP180;11580;52.562;13.418;2023-03-01T09:53:13;101964.00;;;9.10
22828;BMP180;11580;52.562;13.418;2023-03-01T09:55:44;101973.00;;;9.20
22828;BMP180;11580;52.562;13.418;2023-03-01T09:58:37;101969.00;;;9.30
22828;BMP180;11580;52.562;13.418;2023-03-01T10:01:28;101974.00;;;9.40
22828;BMP180;11580;52.562;13.418;2023-03-01T10:04:27;101978.00;;;9.50
22828;BMP180;11580;52.562;13.418;2023-03-01T10:07:07;101979.00;;;9.60
22828;BMP180;11580;52.562;13.418;2023-03-01T10:09:42;101976.00;;;9.60
22828;BMP180;11580;52.562;13.418;2023-03-01T10:12:15;101981.00;;;9.60
22828;BMP180;11580;52.562;13.418;2023-03-01T10:14:55;101982.00;;;9.70
22828;BMP180;11580;52.562;13.418;2023-03-01T10:17:31;101985.00;;;9.70
22828;BMP180;11580;52.562;13.418;2023-03-01T10:20:18;101991.00;;;9.80
22828;BMP180;11580;52.562;13.418;2023-03-01T10:22:46;101979.00;;;9.80
22828;BMP180;11580;52.562;13.418;2023-03-01T10:25:47;101985.00;;;9.90
22828;BMP180;11580;52.562;13.418;2023-03-01T10:28:19;101959.00;;;9.90
22828;BMP180;11580;52.562;13.418;2023-03-01T10:30:48;101971.00;;;10.00
22828;BMP180;11580;52.562;13.418;2023-03-01T10:33:20;101969.00;;;10.10
22828;BMP180;11580;52.562;13.418;2023-03-01T10:35:47;101970.00;;;10.10
22828;BMP180;11580;52.562;13.418;2023-03-01T10:38:16;101970.00;;;10.10
22828;BMP180;11580;52.562;13.418;2023-03-01T10:40:53;101968.00;;;10.20
22828;BMP180;11580;52.562;13.418;2023-03-01T10:43:22;101963.00;;;10.20
22828;BMP180;11580;52.562;13.418;2023-03-01T10:45:51;101959.00;;;10.30
22828;BMP180;11580;52.562;13.418;2023-03-01T10:48:21;101957.00;;;10.30
22828;BMP180;11580;52.562;13.418;2023-03-01T10:51:05;101955.00;;;10.40
22828;BMP180;11580;52.562;13.418;2023-03-01T10:53:36;101946.00;;;10.40
22828;BMP180;11580;52.562;13.418;2023-03-01T10:56:08;101943.00;;;10.50
22828;BMP180;11580;52.562;13.418;2023-03-01T10:58:37;101942.00;;;10.50
22828;BMP180;11580;52.562;13.418;2023-03-01T11:01:26;101944.00;;;10.60
22828;BMP180;11580;52.562;13.418;2023-03-01T11:04:13;101939.00;;;10.70
22828;BMP180;11580;52.562;13.418;2023-03-01T11:06:41;101938.00;;;10.70
22828;BMP180;11580;52.562;13.418;2023-03-01T11:09:18;101938.00;;;10.80
22828;BMP180;11580;52.562;13.418;2023-03-01T11:11:46;101935.00;;;10.90
22828;BMP180;11580;52.562;13.418;2023-03-01T11:14:21;101933.00;;;11.00
22828;BMP180;11580;52.562;13.418;2023-03-01T11:17:01;101924.00;;;11.00
22828;BMP180;11580;52.562;13.418;2023-03-01T11:19:28;101930.00;;;11.10
22828;BMP180;11580;52.562;13.418;2023-03-01T11:22:02;101926.00;;;11.10
22828;BMP180;11580;52.562;13.418;2023-03-01T11:24:37;101928.00;;;11.20
22828;BMP180;11580;52.562;13.418;2023-03-01T11:27:19;101921.00;;;11.30
22828;BMP180;11580;52.562;13.418;2023-03-01T11:29:54;101921.00;;;11.30
22828;BMP180;11580;52.562;13.418;2023-03-01T11:32:31;101925.00;;;11.30
22828;BMP180;11580;52.562;13.418;2023-03-01T11:35:08;101920.00;;;11.30
22828;BMP180;11580;52.562;13.418;2023-03-01T11:37:42;101925.00;;;11.40
22828;BMP180;11580;52.562;13.418;2023-03-01T11:40:16;101931.00;;;11.40
22828;BMP180;11580;52.562;13.418;2023-03-01T11:42:57;101921.00;;;11.40
22828;BMP180;11580;52.562;13.418;2023-03-01T11:45:42;101922.00;;;11.30
22828;BMP180;11580;52.562;13.418;2023-03-01T11:48:42;101917.00;;;11.30
22828;BMP180;11580;52.562;13.418;2023-03-01T11:51:23;101891.00;;;11.30
22828;BMP180;11580;52.562;13.418;2023-03-01T11:54:06;101910.00;;;11.30
22828;BMP180;11580;52.562;13.418;2023-03-01T11:56:41;101920.00;;;11.20
22828;BMP180;11580;52.562;13.418;2023-03-01T11:59:45;101919.00;;;11.20
22828;BMP180;11580;52.562;13.418;2023-03-01T12:02:59;101914.00;;;11.20
22828;BMP180;11580;52.562;13.418;2023-03-01T12:06:18;101910.00;;;11.20
22828;BMP180;11580;52.562;13.418;2023-03-01T12:09:02;101897.00;;;11.30
22828;BMP180;11580;52.562;13.418;2023-03-01T12:11:49;101899.00;;;11.30
22828;BMP180;11580;52.562;13.418;2023-03-01T12:14:53;101895.00;;;11.30
22828;BMP180;11580;52.562;13.418;2023-03-01T12:17:47;101889.00;;;11.30
22828;BMP180;11580;52.562;13.418;2023-03-01T12:20:28;101895.00;;;11.30
22828;BMP180;11580;52.562;13.418;2023-03-01T12:23:33;101895.00;;;11.30
22828;BMP180;11580;52.562;13.418;2023-03-01T12:26:16;101882.00;;;11.30
22828;BMP180;11580;52.562;13.418;2023-03-01T12:29:15;101875.00;;;11.40
22828;BMP180;11580;52.562;13.418;2023-03-01T12:35:38;101862.00;;;11.40
22828;BMP180;11580;52.562;13.418;2023-03-01T12:38:24;101865.00;;;11.40
22828;BMP180;11580;52.562;13.418;2023-03-01T12:41:35;101873.00;;;11.40
22828;BMP180;11580;52.562;13.418;2023-03-01T12:44:21;101860.00;;;11.50
22828;BMP180;11580;52.562;13.418;2023-03-01T12:47:11;101863.00;;;11.50
22828;BMP180;11580;52.562;13.418;2023-03-01T12:49:44;101870.00;;;11.60
22828;BMP180;11580;52.562;13.418;2023-03-01T12:52:19;101851.00;;;11.50
22828;BMP180;11580;52.562;13.418;2023-03-01T12:54:53;101846.00;;;11.60
22828;BMP180;11580;52.562;13.418;2023-03-01T12:57:30;101847.00;;;11.60
22828;BMP180;11580;52.562;13.418;2023-03-01T13:00:25;101846.00;;;11.60
22828;BMP180;11580;52.562;13.418;2023-03-01T13:03:05;101844.00;;;11.70
22828;BMP180;11580;52.562;13.418;2023-03-01T13:05:45;101830.00;;;11.70
22828;BMP180;11580;52.562;13.418;2023-03-01T13:08:20;101837.00;;;11.80
22828;BMP180;11580;52.562;13.418;2023-03-01T13:10:57;101820.00;;;11.80
22828;BMP180;11580;52.562;13.418;2023-03-01T13:13:27;101845.00;;;11.80
22828;BMP180;11580;52.562;13.418;2023-03-01T13:15:55;101839.00;;;11.80
22828;BMP180;11580;52.562;13.418;2023-03-01T13:18:33;101838.00;;;11.90
22828;BMP180;11580;52.562;13.418;2023-03-01T13:21:02;101830.00;;;11.90
22828;BMP180;11580;52.562;13.418;2023-03-01T13:23:36;101833.00;;;11.90
22828;BMP180;11580;52.562;13.418;2023-03-01T13:26:15;101821.00;;;11.90
22828;BMP180;11580;52.562;13.418;2023-03-01T13:29:00;101824.00;;;11.90
22828;BMP180;11580;52.562;13.418;2023-03-01T13:31:57;101829.00;;;11.90
22828;BMP180;11580;52.562;13.418;2023-03-01T13:34:50;101821.00;;;11.90
22828;BMP180;11580;52.562;13.418;2023-03-01T13:37:36;101818.00;;;11.90
22828;BMP180;11580;52.562;13.418;2023-03-01T13:40:57;101813.00;;;11.90
22828;BMP180;11580;52.562;13.418;2023-03-01T13:43:31;101818.00;;;11.90
22828;BMP180;11580;52.562;13.418;2023-03-01T13:46:02;101812.00;;;11.90
22828;BMP180;11580;52.562;13.418;2023-03-01T13:48:34;101809.00;;;12.00
22828;BMP180;11580;52.562;13.418;2023-03-01T13:51:05;101802.00;;;12.00
22828;BMP180;11580;52.562;13.418;2023-03-01T13:53:37;101803.00;;;12.00
22828;BMP180;11580;52.562;13.418;2023-03-01T13:56:10;101798.00;;;12.00
22828;BMP180;11580;52.562;13.418;2023-03-01T13:58:50;101798.00;;;12.00
22828;BMP180;11580;52.562;13.418;2023-03-01T14:01:26;101803.00;;;12.00
22828;BMP180;11580;52.562;13.418;2023-03-01T14:03:55;101801.00;;;12.10
22828;BMP180;11580;52.562;13.418;2023-03-01T14:06:24;101801.00;;;12.10
22828;BMP180;11580;52.562;13.418;2023-03-01T14:09:08;101790.00;;;12.10
22828;BMP180;11580;52.562;13.418;2023-03-01T14:12:22;101787.00;;;12.10
22828;BMP180;11580;52.562;13.418;2023-03-01T14:15:01;101785.00;;;12.10
22828;BMP180;11580;52.562;13.418;2023-03-01T14:17:50;101777.00;;;12.10
22828;BMP180;11580;52.562;13.418;2023-03-01T14:20:23;101780.00;;;12.10
22828;BMP180;11580;52.562;13.418;2023-03-01T14:22:55;101778.00;;;12.10
22828;BMP180;11580;52.562;13.418;2023-03-01T14:25:27;101770.00;;;12.10
22828;BMP180;11580;52.562;13.418;2023-03-01T14:28:00;101767.00;;;12.20
22828;BMP180;11580;52.562;13.418;2023-03-01T14:30:36;101768.00;;;12.20